createdAt,value
2018-05-01T00:00:39.659Z,1.30
2018-05-01T00:01:40.668Z,1.30
2018-05-01T00:02:40.675Z,1.40
2018-05-01T00:03:42.808Z,1.40
2018-05-01T00:05:04.644Z,1.20
2018-05-01T00:06:04.045Z,1.30
2018-05-01T00:07:04.174Z,1.20
2018-05-01T00:08:03.743Z,1.10
2018-05-01T00:09:04.683Z,1.30
2018-05-01T00:10:03.268Z,1.10
2018-05-01T00:11:03.401Z,1.20
2018-05-01T00:12:03.626Z,1.20
2018-05-01T00:13:24.425Z,1.30
2018-05-01T00:14:24.103Z,1.00
2018-05-01T00:15:25.321Z,1.20
2018-05-01T00:16:24.419Z,1.20
2018-05-01T00:17:24.513Z,1.70
2018-05-01T00:18:24.587Z,1.10
2018-05-01T00:19:25.446Z,1.10
2018-05-01T00:20:24.390Z,1.00
2018-05-01T00:21:23.984Z,1.10
2018-05-01T00:22:24.872Z,1.10
2018-05-01T00:23:25.019Z,1.10
2018-05-01T00:24:45.280Z,1.10
2018-05-01T00:25:45.365Z,1.10
2018-05-01T00:26:45.069Z,1.20
2018-05-01T00:27:45.911Z,1.10
2018-05-01T00:28:46.228Z,1.20
2018-05-01T00:30:07.340Z,1.20
2018-05-01T00:31:08.522Z,1.50
2018-05-01T00:32:07.962Z,1.30
2018-05-01T00:33:11.244Z,1.20
2018-05-01T00:34:08.062Z,1.30
2018-05-01T00:35:08.536Z,1.60
2018-05-01T00:36:08.797Z,1.20
2018-05-01T00:37:08.318Z,1.20
2018-05-01T00:38:07.608Z,1.20
2018-05-01T00:39:50.064Z,1.20
2018-05-01T00:41:33.739Z,1.20
2018-05-01T00:42:33.932Z,1.30
2018-05-01T00:43:59.237Z,1.30
2018-05-01T00:44:57.113Z,1.20
2018-05-01T00:45:56.108Z,1.20
2018-05-01T00:46:55.629Z,1.30
2018-05-01T00:47:55.461Z,1.30
2018-05-01T00:48:55.242Z,1.40
2018-05-01T00:49:56.153Z,1.20
2018-05-01T00:51:16.470Z,1.40
2018-05-01T00:52:17.329Z,1.20
2018-05-01T00:53:16.418Z,1.30
2018-05-01T00:54:16.581Z,1.50
2018-05-01T00:55:37.459Z,1.50
2018-05-01T00:56:40.294Z,1.30
2018-05-01T00:57:37.946Z,1.70
2018-05-01T00:59:21.973Z,1.50
2018-05-01T01:00:21.139Z,1.40
2018-05-01T01:01:21.675Z,1.50
2018-05-01T01:02:21.597Z,1.60
2018-05-01T01:03:21.071Z,1.60
2018-05-01T01:04:20.610Z,1.40
2018-05-01T01:05:20.541Z,1.80
2018-05-01T01:06:22.812Z,1.70
2018-05-01T01:07:21.186Z,1.80
2018-05-01T01:08:20.710Z,1.50
2018-05-01T01:09:21.168Z,1.60
2018-05-01T01:10:21.235Z,1.80
2018-05-01T01:11:21.708Z,1.90
2018-05-01T01:12:20.716Z,1.60
2018-05-01T01:13:20.771Z,1.90
2018-05-01T01:14:21.349Z,1.80
2018-05-01T01:15:20.648Z,2.20
2018-05-01T01:16:20.787Z,2.00
2018-05-01T01:17:23.440Z,1.90
2018-05-01T01:18:42.536Z,2.00
2018-05-01T01:19:42.872Z,2.10
2018-05-01T01:20:43.278Z,2.10
2018-05-01T01:21:45.232Z,2.40
2018-05-01T01:22:42.457Z,2.20
2018-05-01T01:23:42.825Z,2.20
2018-05-01T01:24:42.789Z,2.30
2018-05-01T01:25:42.233Z,2.40
2018-05-01T01:26:42.493Z,2.40
2018-05-01T01:27:43.432Z,2.40
2018-05-01T01:28:42.988Z,2.70
2018-05-01T01:29:41.974Z,2.60
2018-05-01T01:30:43.883Z,2.70
2018-05-01T01:31:42.690Z,2.80
2018-05-01T01:32:43.082Z,2.50
2018-05-01T01:34:03.927Z,2.80
2018-05-01T01:35:24.290Z,2.70
2018-05-01T01:36:25.324Z,2.90
2018-05-01T01:37:25.879Z,2.90
2018-05-01T01:38:24.659Z,2.80
2018-05-01T01:39:26.069Z,3.40
2018-05-01T01:40:25.363Z,2.70
2018-05-01T01:41:46.825Z,2.80
2018-05-01T01:42:48.580Z,2.50
2018-05-01T01:43:46.717Z,2.70
2018-05-01T01:44:47.290Z,2.90
2018-05-01T01:45:46.662Z,2.60
2018-05-01T01:46:46.477Z,2.50
2018-05-01T01:47:46.395Z,3.20
2018-05-01T01:48:46.083Z,2.80
2018-05-01T01:49:46.170Z,2.80
2018-05-01T01:50:46.255Z,2.90
2018-05-01T01:51:45.840Z,3.00
2018-05-01T01:52:46.764Z,2.90
2018-05-01T01:53:47.238Z,3.10
2018-05-01T01:54:46.365Z,3.10
2018-05-01T01:56:07.894Z,3.30
2018-05-01T01:57:28.259Z,3.00
2018-05-01T01:58:29.719Z,2.90
2018-05-01T01:59:28.934Z,3.00
2018-05-01T02:00:28.622Z,3.40
2018-05-01T02:01:28.813Z,3.40
2018-05-01T02:02:28.643Z,3.10
2018-05-01T02:03:28.508Z,3.10
2018-05-01T02:04:29.522Z,4.00
2018-05-01T02:05:29.803Z,3.50
2018-05-01T02:06:29.591Z,3.20
2018-05-01T02:07:29.392Z,3.30
2018-05-01T02:08:29.677Z,3.30
2018-05-01T02:09:39.766Z,3.80
2018-05-01T02:10:31.375Z,3.50
2018-05-01T02:11:30.432Z,3.60
2018-05-01T02:12:29.982Z,4.00
2018-05-01T02:13:28.785Z,4.50
2018-05-01T02:14:29.542Z,4.40
2018-05-01T02:15:29.433Z,4.30
2018-05-01T02:16:29.428Z,4.90
2018-05-01T02:17:50.701Z,4.00
2018-05-01T02:19:12.136Z,4.10
2018-05-01T02:20:11.799Z,3.80
2018-05-01T02:21:32.968Z,4.00
2018-05-01T02:22:34.495Z,4.00
2018-05-01T02:23:33.754Z,4.20
2018-05-01T02:24:34.040Z,4.00
2018-05-01T02:25:33.654Z,3.50
2018-05-01T02:26:33.630Z,3.70
2018-05-01T02:27:33.487Z,4.10
2018-05-01T02:28:54.026Z,3.60
2018-05-01T02:29:55.789Z,3.90
2018-05-01T02:30:54.939Z,3.60
2018-05-01T02:31:54.746Z,3.40
2018-05-01T02:32:54.988Z,3.20
2018-05-01T02:33:55.171Z,3.40
2018-05-01T02:34:54.779Z,4.10
2018-05-01T02:35:55.145Z,4.00
2018-05-01T02:36:54.996Z,3.60
2018-05-01T02:37:54.907Z,4.10
2018-05-01T02:38:54.958Z,4.00
2018-05-01T02:39:55.327Z,3.60
2018-05-01T02:40:54.608Z,3.30
2018-05-01T02:41:54.352Z,3.60
2018-05-01T02:42:53.966Z,3.70
2018-05-01T02:43:54.787Z,3.50
2018-05-01T02:44:54.734Z,3.30
2018-05-01T02:45:54.635Z,3.40
2018-05-01T02:46:54.219Z,3.50
2018-05-01T02:47:55.101Z,3.60
2018-05-01T02:48:54.796Z,3.60
2018-05-01T02:49:54.448Z,3.50
2018-05-01T02:50:54.571Z,3.40
2018-05-01T02:51:54.536Z,3.80
2018-05-01T02:52:54.454Z,3.40
2018-05-01T02:53:54.361Z,3.40
2018-05-01T02:54:54.393Z,3.20
2018-05-01T02:55:54.264Z,2.80
2018-05-01T02:56:55.152Z,3.30
2018-05-01T02:57:55.001Z,3.10
2018-05-01T02:58:55.051Z,3.00
2018-05-01T02:59:55.116Z,3.10
2018-05-01T03:00:54.799Z,2.90
2018-05-01T03:01:54.396Z,2.90
2018-05-01T03:02:54.430Z,2.90
2018-05-01T03:03:53.945Z,3.10
2018-05-01T03:04:55.025Z,3.10
2018-05-01T03:05:54.973Z,3.50
2018-05-01T03:06:54.510Z,3.30
2018-05-01T03:07:54.675Z,2.60
2018-05-01T03:08:54.169Z,2.70
2018-05-01T03:09:54.271Z,3.00
2018-05-01T03:10:54.327Z,3.50
2018-05-01T03:11:54.380Z,3.10
2018-05-01T03:13:15.303Z,3.50
2018-05-01T03:14:14.911Z,3.10
2018-05-01T03:15:15.530Z,3.50
2018-05-01T03:16:16.774Z,3.50
2018-05-01T03:17:15.790Z,3.30
2018-05-01T03:18:15.528Z,3.80
2018-05-01T03:19:15.200Z,3.80
2018-05-01T03:20:15.250Z,3.80
2018-05-01T03:21:14.939Z,3.50
2018-05-01T03:22:38.792Z,4.00
2018-05-01T03:23:38.878Z,3.90
2018-05-01T03:24:39.015Z,3.40
2018-05-01T03:25:38.929Z,4.10
2018-05-01T03:26:38.784Z,3.20
2018-05-01T03:27:38.854Z,3.70
2018-05-01T03:28:38.854Z,3.70
2018-05-01T03:29:38.506Z,3.70
2018-05-01T03:30:39.118Z,4.20
2018-05-01T03:31:38.625Z,4.10
2018-05-01T03:32:39.495Z,4.70
2018-05-01T03:33:38.987Z,4.60
2018-05-01T03:34:39.055Z,4.30
2018-05-01T03:35:38.578Z,3.80
2018-05-01T03:36:39.196Z,4.20
2018-05-01T03:37:38.796Z,4.60
2018-05-01T03:38:38.809Z,4.30
2018-05-01T03:39:38.489Z,4.80
2018-05-01T03:40:39.266Z,4.70
2018-05-01T03:41:39.257Z,4.40
2018-05-01T03:42:39.227Z,4.30
2018-05-01T03:43:38.648Z,4.00
2018-05-01T03:44:39.659Z,3.90
2018-05-01T03:45:39.483Z,3.90
2018-05-01T03:46:39.278Z,4.50
2018-05-01T03:47:39.296Z,4.80
2018-05-01T03:48:38.988Z,5.00
2018-05-01T03:49:59.638Z,4.90
2018-05-01T03:51:00.563Z,5.00
2018-05-01T03:52:00.111Z,4.30
2018-05-01T03:52:59.565Z,4.40
2018-05-01T03:53:59.590Z,4.10
2018-05-01T03:55:00.495Z,4.20
2018-05-01T03:56:20.668Z,4.00
2018-05-01T03:57:20.752Z,4.50
2018-05-01T03:58:22.309Z,4.30
2018-05-01T03:59:21.633Z,4.70
2018-05-01T04:00:20.342Z,4.20
2018-05-01T04:01:21.414Z,4.70
2018-05-01T04:02:21.006Z,4.70
2018-05-01T04:03:20.598Z,5.30
2018-05-01T04:04:21.245Z,4.00
2018-05-01T04:05:21.224Z,3.60
2018-05-01T04:06:20.870Z,4.30
2018-05-01T04:07:21.073Z,4.30
2018-05-01T04:08:21.315Z,4.80
2018-05-01T04:09:21.235Z,4.70
2018-05-01T04:10:21.363Z,5.30
2018-05-01T04:11:21.273Z,5.10
2018-05-01T04:12:21.356Z,5.00
2018-05-01T04:13:21.373Z,5.10
2018-05-01T04:14:20.903Z,4.90
2018-05-01T04:15:20.961Z,5.50
2018-05-01T04:16:21.055Z,5.50
2018-05-01T04:17:20.977Z,5.00
2018-05-01T04:18:20.909Z,4.80
2018-05-01T04:19:20.716Z,4.90
2018-05-01T04:20:21.683Z,4.20
2018-05-01T04:21:21.577Z,4.60
2018-05-01T04:22:21.624Z,4.60
2018-05-01T04:23:21.587Z,4.80
2018-05-01T04:24:21.185Z,4.30
2018-05-01T04:25:20.849Z,4.20
2018-05-01T04:26:20.616Z,4.50
2018-05-01T04:27:21.586Z,4.50
2018-05-01T04:28:21.523Z,4.60
2018-05-01T04:29:21.412Z,4.10
2018-05-01T04:30:21.038Z,4.10
2018-05-01T06:02:29.517Z,3.30
2018-05-01T06:03:29.501Z,3.20
2018-05-01T06:04:29.635Z,3.20
2018-05-01T06:05:29.308Z,3.30
2018-05-01T06:06:30.597Z,4.10
2018-05-01T06:07:29.667Z,3.60
2018-05-01T06:08:29.866Z,3.20
2018-05-01T06:09:30.308Z,3.70
2018-05-01T06:10:31.037Z,3.60
2018-05-01T06:11:29.918Z,4.30
2018-05-01T06:12:29.666Z,4.40
2018-05-01T06:13:29.471Z,3.70
2018-05-01T06:14:29.709Z,3.70
2018-05-01T06:15:29.857Z,4.10
2018-05-01T06:16:29.884Z,4.10
2018-05-01T06:17:29.628Z,4.10
2018-05-01T06:18:29.595Z,3.90
2018-05-01T06:19:29.600Z,4.10
2018-05-01T06:20:29.431Z,4.70
2018-05-01T06:21:30.204Z,4.70
2018-05-01T06:22:30.280Z,4.30
2018-05-01T06:23:30.370Z,4.00
2018-05-01T06:24:30.489Z,4.20
2018-05-01T06:25:30.136Z,4.90
2018-05-01T06:26:30.874Z,4.50
2018-05-01T06:27:29.669Z,4.50
2018-05-01T06:28:29.480Z,4.10
2018-05-01T06:29:29.143Z,3.50
2018-05-01T06:30:29.886Z,4.30
2018-05-01T06:31:29.577Z,3.90
2018-05-01T06:32:29.811Z,3.90
2018-05-01T06:33:29.884Z,4.40
2018-05-01T06:34:29.665Z,4.60
2018-05-01T06:35:29.476Z,4.60
2018-05-01T06:36:29.383Z,3.90
2018-05-01T06:37:29.775Z,4.10
2018-05-01T06:38:29.716Z,4.10
2018-05-01T06:39:29.846Z,4.10
2018-05-01T06:40:50.772Z,4.20
2018-05-01T06:41:50.852Z,3.90
2018-05-01T06:42:50.532Z,4.40
2018-05-01T06:43:51.618Z,4.20
2018-05-01T06:44:51.632Z,4.10
2018-05-01T06:45:51.632Z,4.30
2018-05-01T06:46:51.436Z,4.50
2018-05-01T06:47:51.731Z,4.20
2018-05-01T06:48:50.450Z,4.80
2018-05-01T06:49:52.717Z,5.10
2018-05-01T06:50:51.639Z,3.90
2018-05-01T06:51:50.385Z,3.70
2018-05-01T06:52:51.249Z,4.00
2018-05-01T06:53:50.845Z,3.50
2018-05-01T06:54:50.940Z,3.90
2018-05-01T06:55:51.096Z,4.30
2018-05-01T06:56:51.347Z,4.10
2018-05-01T06:58:11.553Z,4.20
2018-05-01T06:59:12.286Z,4.30
2018-05-01T07:00:12.311Z,4.20
2018-05-01T07:01:33.298Z,4.50
2018-05-01T07:02:33.289Z,4.20
2018-05-01T07:03:33.070Z,4.50
2018-05-01T07:04:34.201Z,4.70
2018-05-01T07:05:33.381Z,4.40
2018-05-01T07:06:33.267Z,4.70
2018-05-01T07:07:33.501Z,4.30
2018-05-01T07:08:33.757Z,4.80
2018-05-01T07:09:33.808Z,5.10
2018-05-01T07:10:33.852Z,5.20
2018-05-01T07:11:34.044Z,4.60
2018-05-01T07:12:34.121Z,4.40
2018-05-01T07:13:33.291Z,4.20
2018-05-01T07:15:14.989Z,4.40
2018-05-01T07:16:15.163Z,4.90
2018-05-01T07:17:15.242Z,4.80
2018-05-01T07:18:15.004Z,5.20
2018-05-01T07:19:35.960Z,5.00
2018-05-01T07:20:36.063Z,5.40
2018-05-01T07:21:36.176Z,5.00
2018-05-01T07:22:36.112Z,5.50
2018-05-01T07:23:36.313Z,5.50
2018-05-01T07:24:57.148Z,5.30
2018-05-01T07:26:01.854Z,5.70
2018-05-01T07:27:03.527Z,4.90
2018-05-01T07:27:57.454Z,4.90
2018-05-01T07:28:57.562Z,5.30
2018-05-01T07:29:57.526Z,5.00
2018-05-01T07:31:20.444Z,4.90
2018-05-01T07:32:20.139Z,4.70
2018-05-01T07:33:20.080Z,4.70
2018-05-01T07:34:20.259Z,5.20
2018-05-01T07:35:20.735Z,4.70
2018-05-01T07:36:20.463Z,4.80
2018-05-01T07:37:20.447Z,4.00
2018-05-01T07:38:20.480Z,4.40
2018-05-01T07:39:20.260Z,4.60
2018-05-01T07:40:20.054Z,4.10
2018-05-01T07:41:21.095Z,4.00
2018-05-01T07:42:19.917Z,3.90
2018-05-01T07:43:21.226Z,3.90
2018-05-01T07:44:20.335Z,3.80
2018-05-01T07:45:20.407Z,3.70
2018-05-01T07:46:20.615Z,4.00
2018-05-01T07:47:20.654Z,3.40
2018-05-01T07:48:20.567Z,3.20
2018-05-01T07:49:21.433Z,3.10
2018-05-01T07:50:41.435Z,3.60
2018-05-01T07:51:46.685Z,3.20
2018-05-01T07:52:42.428Z,3.10
2018-05-01T07:53:43.305Z,2.60
2018-05-01T07:54:42.265Z,2.90
2018-05-01T07:56:03.787Z,2.80
2018-05-01T07:57:04.735Z,2.80
2018-05-01T07:58:03.745Z,2.70
2018-05-01T07:59:04.225Z,3.00
2018-05-01T08:00:05.364Z,2.80
2018-05-01T08:01:04.963Z,2.30
2018-05-01T08:02:03.916Z,2.50
2018-05-01T08:03:04.198Z,2.90
2018-05-01T08:04:04.308Z,3.00
2018-05-01T08:05:04.338Z,3.10
2018-05-01T08:06:04.758Z,2.30
2018-05-01T08:07:04.943Z,2.80
2018-05-01T08:08:04.191Z,2.60
2018-05-01T08:09:04.220Z,2.60
2018-05-01T08:10:04.598Z,2.60
2018-05-01T08:11:04.398Z,2.70
2018-05-01T08:12:04.391Z,2.70
2018-05-01T08:13:04.605Z,2.80
2018-05-01T08:14:03.939Z,3.10
2018-05-01T08:15:04.638Z,2.70
2018-05-01T08:16:04.649Z,2.30
2018-05-01T08:17:03.531Z,2.50
2018-05-01T08:18:03.464Z,2.50
2018-05-01T08:19:04.346Z,2.30
2018-05-01T08:20:04.096Z,2.40
2018-05-01T08:21:04.681Z,2.40
2018-05-01T08:22:03.887Z,2.90
2018-05-01T08:23:04.745Z,2.30
2018-05-01T08:24:04.279Z,2.50
2018-05-01T08:25:04.632Z,2.50
2018-05-01T08:26:03.927Z,2.70
2018-05-01T08:27:26.076Z,3.10
2018-05-01T08:28:26.983Z,2.70
2018-05-01T08:29:25.518Z,2.90
2018-05-01T08:30:27.274Z,3.10
2018-05-01T08:31:26.003Z,2.90
2018-05-01T08:32:26.717Z,3.60
2018-05-01T08:33:27.403Z,2.70
2018-05-01T08:34:25.771Z,3.30
2018-05-01T08:35:25.407Z,2.90
2018-05-01T08:36:25.427Z,3.20
2018-05-01T08:37:25.719Z,3.20
2018-05-01T08:38:24.957Z,3.30
2018-05-01T08:39:25.163Z,3.40
2018-05-01T08:40:47.498Z,3.60
2018-05-01T08:41:48.839Z,3.30
2018-05-01T08:42:47.674Z,3.80
2018-05-01T08:43:48.025Z,3.40
2018-05-01T08:44:48.376Z,3.40
2018-05-01T08:45:49.717Z,2.90
2018-05-01T08:46:49.750Z,3.40
2018-05-01T08:47:49.732Z,3.40
2018-05-01T08:48:50.431Z,3.40
2018-05-01T08:49:50.059Z,3.70
2018-05-01T08:50:48.432Z,3.20
2018-05-01T08:51:47.650Z,3.50
2018-05-01T08:52:49.407Z,4.10
2018-05-01T08:53:49.142Z,3.80
2018-05-01T08:54:48.592Z,3.80
2018-05-01T08:55:49.077Z,4.30
2018-05-01T08:56:49.602Z,4.50
2018-05-01T08:57:49.434Z,4.80
2018-05-01T08:58:47.967Z,5.20
2018-05-01T09:00:09.652Z,5.60
2018-05-01T09:01:33.529Z,5.90
2018-05-01T09:02:33.154Z,6.30
2018-05-01T09:03:35.849Z,6.70
2018-05-01T09:04:34.378Z,6.40
2018-05-01T09:05:33.097Z,6.60
2018-05-01T09:06:33.267Z,7.70
2018-05-01T09:07:34.309Z,7.40
2018-05-01T09:08:34.413Z,7.80
2018-05-01T09:09:32.457Z,7.70
2018-05-01T09:10:33.697Z,7.60
2018-05-01T09:11:34.100Z,8.30
2018-05-01T09:12:33.536Z,8.40
2018-05-01T09:13:54.610Z,8.00
2018-05-01T09:14:55.569Z,7.70
2018-05-01T09:15:54.490Z,7.70
2018-05-01T09:16:55.265Z,8.00
2018-05-01T09:17:55.686Z,8.00
2018-05-01T09:18:56.847Z,8.60
2018-05-01T09:19:55.872Z,7.80
2018-05-01T09:20:55.676Z,8.00
2018-05-01T09:21:56.308Z,8.20
2018-05-01T09:23:00.367Z,7.50
2018-05-01T09:23:56.299Z,8.00
2018-05-01T09:24:54.482Z,8.00
2018-05-01T09:25:54.754Z,7.30
2018-05-01T09:26:56.242Z,8.00
2018-05-01T09:27:55.843Z,8.30
2018-05-01T09:28:54.988Z,7.90
2018-05-01T09:29:54.984Z,8.00
2018-05-01T09:30:55.247Z,8.00
2018-05-01T09:31:56.014Z,7.50
2018-05-01T09:32:56.722Z,7.80
2018-05-01T09:34:23.922Z,7.30
2018-05-01T09:35:25.068Z,6.50
2018-05-01T09:36:45.997Z,7.90
2018-05-01T09:37:46.112Z,7.60
2018-05-01T09:38:46.180Z,7.10
2018-05-01T09:39:45.625Z,7.20
2018-05-01T09:41:07.902Z,7.10
2018-05-01T09:42:07.285Z,6.80
2018-05-01T09:43:07.876Z,6.90
2018-05-01T09:44:49.940Z,6.80
2018-05-01T09:45:50.005Z,6.60
2018-05-01T09:46:50.697Z,7.60
2018-05-01T09:47:51.225Z,7.70
2018-05-01T09:48:51.218Z,7.50
2018-05-01T09:49:51.332Z,7.40
2018-05-01T09:50:50.863Z,6.70
2018-05-01T09:51:50.077Z,6.80
2018-05-01T09:52:51.097Z,6.10
2018-05-01T09:53:50.576Z,6.70
2018-05-01T09:54:51.627Z,6.60
2018-05-01T09:55:52.217Z,6.20
2018-05-01T09:56:52.351Z,6.70
2018-05-01T09:57:50.493Z,6.30
2018-05-01T09:58:50.723Z,6.00
2018-05-01T09:59:51.051Z,6.50
2018-05-01T10:00:50.333Z,6.60
2018-05-01T10:01:51.921Z,6.60
2018-05-01T10:02:50.207Z,5.90
2018-05-01T10:03:50.623Z,6.10
2018-05-01T10:05:20.795Z,5.90
2018-05-01T10:06:21.436Z,6.00
2018-05-01T10:07:22.479Z,5.90
2018-05-01T10:08:20.807Z,5.60
2018-05-01T10:09:21.629Z,6.00
2018-05-01T10:10:19.817Z,5.70
2018-05-01T10:11:19.867Z,6.20
2018-05-01T10:12:41.307Z,5.90
2018-05-01T10:13:41.327Z,5.70
2018-05-01T10:14:42.888Z,5.90
2018-05-01T10:15:41.841Z,6.00
2018-05-01T10:16:41.070Z,5.90
2018-05-01T10:17:41.036Z,6.30
2018-05-01T10:18:41.324Z,6.20
2018-05-01T10:19:41.517Z,5.90
2018-05-01T10:20:42.676Z,6.30
2018-05-01T10:21:43.687Z,5.60
2018-05-01T10:22:41.261Z,6.10
2018-05-01T10:23:41.638Z,5.30
2018-05-01T10:24:41.821Z,6.30
2018-05-01T10:25:44.055Z,4.90
2018-05-01T10:26:42.223Z,5.50
2018-05-01T10:27:41.241Z,5.60
2018-05-01T10:28:41.837Z,6.00
2018-05-01T10:30:03.732Z,5.30
2018-05-01T10:31:03.741Z,5.60
2018-05-01T10:32:04.280Z,5.40
2018-05-01T10:33:04.075Z,5.40
2018-05-01T10:34:03.479Z,5.60
2018-05-01T10:35:03.610Z,5.70
2018-05-01T10:36:03.697Z,6.00
2018-05-01T10:37:05.225Z,5.80
2018-05-01T10:38:03.802Z,6.00
2018-05-01T10:39:04.114Z,5.50
2018-05-01T10:40:03.079Z,6.60
2018-05-01T10:41:05.410Z,7.20
2018-05-01T10:42:03.593Z,6.10
2018-05-01T10:43:25.799Z,6.40
2018-05-01T10:44:26.446Z,7.20
2018-05-01T10:45:26.370Z,7.20
2018-05-01T10:46:27.111Z,7.50
2018-05-01T10:47:46.984Z,7.20
2018-05-01T10:48:48.241Z,8.30
2018-05-01T10:49:46.756Z,8.20
2018-05-01T10:50:47.360Z,8.40
2018-05-01T10:51:47.305Z,7.60
2018-05-01T10:52:46.918Z,7.90
2018-05-01T10:53:47.322Z,8.80
2018-05-01T10:54:46.851Z,8.80
2018-05-01T10:55:47.291Z,9.40
2018-05-01T10:56:47.319Z,9.00
2018-05-01T10:57:46.343Z,9.60
2018-05-01T10:58:46.689Z,9.40
2018-05-01T11:00:08.117Z,9.10
2018-05-01T11:01:09.776Z,8.70
2018-05-01T11:02:08.260Z,9.30
2018-05-01T11:03:08.665Z,8.50
2018-05-01T11:04:09.186Z,9.60
2018-05-01T11:05:08.835Z,9.80
2018-05-01T11:06:08.253Z,9.10
2018-05-01T11:07:08.472Z,9.30
2018-05-01T11:08:09.834Z,9.60
2018-05-01T11:09:08.725Z,9.10
2018-05-01T11:10:09.167Z,8.80
2018-05-01T11:11:08.400Z,10.00
2018-05-01T11:12:30.305Z,9.50
2018-05-01T11:13:30.546Z,9.20
2018-05-01T11:14:30.644Z,9.90
2018-05-01T11:15:51.464Z,9.20
2018-05-01T11:17:14.372Z,9.90
2018-05-01T11:18:35.653Z,8.50
2018-05-01T11:20:09.804Z,8.20
2018-05-01T11:21:31.439Z,8.30
2018-05-01T11:22:53.702Z,8.90
2018-05-01T11:23:52.925Z,8.70
2018-05-01T11:24:55.343Z,8.50
2018-05-01T11:25:53.839Z,7.90
2018-05-01T11:27:14.451Z,8.10
2018-05-01T11:28:15.878Z,7.40
2018-05-01T11:29:15.970Z,6.50
2018-05-01T11:30:40.474Z,6.80
2018-05-01T11:31:41.531Z,6.00
2018-05-01T11:32:41.126Z,6.90
2018-05-01T11:33:42.054Z,6.40
2018-05-01T11:34:42.067Z,6.00
2018-05-01T11:35:42.241Z,5.60
2018-05-01T11:36:42.227Z,5.10
2018-05-01T11:38:02.739Z,5.10
2018-05-01T11:39:03.546Z,5.40
2018-05-01T11:40:04.714Z,5.60
2018-05-01T11:41:03.100Z,4.50
2018-05-01T11:42:05.330Z,4.00
2018-05-01T11:43:03.937Z,4.20
2018-05-01T11:44:03.965Z,4.40
2018-05-01T11:45:04.884Z,4.10
2018-05-01T11:46:04.056Z,4.50
2018-05-01T11:47:04.228Z,4.40
2018-05-01T11:48:04.483Z,3.70
2018-05-01T11:49:05.064Z,4.10
2018-05-01T11:50:03.899Z,3.60
2018-05-01T11:51:04.244Z,4.30
2018-05-01T11:52:27.163Z,4.60
2018-05-01T11:53:27.580Z,4.20
2018-05-01T11:54:27.304Z,4.40
2018-05-01T11:55:27.555Z,3.80
2018-05-01T11:56:27.013Z,4.30
2018-05-01T11:57:28.003Z,4.50
2018-05-01T11:58:27.454Z,4.20
2018-05-01T11:59:27.451Z,4.50
2018-05-01T12:00:26.812Z,3.50
2018-05-01T12:01:26.549Z,3.80
2018-05-01T12:02:27.163Z,4.30
2018-05-01T12:03:26.903Z,3.70
2018-05-01T12:04:26.750Z,3.70
2018-05-01T12:05:26.352Z,4.10
2018-05-01T12:06:26.974Z,4.30
2018-05-01T12:07:30.754Z,3.90
2018-05-01T12:08:27.687Z,4.30
2018-05-01T12:09:27.398Z,3.50
2018-05-01T12:10:28.044Z,3.90
2018-05-01T12:11:26.808Z,3.80
2018-05-01T12:12:50.819Z,3.70
2018-05-01T12:13:52.084Z,3.80
2018-05-01T12:14:50.557Z,3.40
2018-05-01T12:16:13.110Z,3.70
2018-05-01T12:17:13.924Z,3.60
2018-05-01T12:18:13.825Z,3.90
2018-05-01T12:19:13.681Z,4.00
2018-05-01T12:20:13.539Z,4.00
2018-05-01T12:21:57.382Z,3.90
2018-05-01T12:22:58.738Z,3.90
2018-05-01T12:23:58.000Z,3.70
2018-05-01T12:24:58.240Z,4.20
2018-05-01T12:26:02.032Z,4.70
2018-05-01T12:26:58.241Z,4.80
2018-05-01T12:27:58.337Z,4.50
2018-05-01T12:28:58.184Z,4.00
2018-05-01T12:29:59.356Z,4.00
2018-05-01T12:30:58.014Z,4.00
2018-05-01T12:31:58.324Z,4.60
2018-05-01T12:32:57.368Z,4.30
2018-05-01T12:33:59.421Z,4.90
2018-05-01T12:35:00.296Z,4.80
2018-05-01T12:35:57.858Z,4.20
2018-05-01T12:37:22.257Z,4.90
2018-05-01T12:38:20.470Z,4.60
2018-05-01T12:39:20.341Z,4.50
2018-05-01T12:40:19.956Z,5.10
2018-05-01T12:41:20.543Z,4.60
2018-05-01T12:42:20.319Z,4.70
2018-05-01T12:43:19.724Z,4.40
2018-05-01T12:44:21.148Z,4.40
2018-05-01T12:45:23.055Z,5.00
2018-05-01T12:47:25.823Z,4.80
2018-05-01T12:48:26.641Z,4.40
2018-05-01T12:49:26.454Z,4.80
2018-05-01T12:50:26.396Z,4.70
2018-05-01T12:51:26.452Z,5.10
2018-05-01T12:52:26.006Z,5.20
2018-05-01T12:53:27.351Z,4.90
2018-05-01T12:54:26.912Z,5.50
2018-05-01T12:55:26.492Z,5.00
2018-05-01T12:56:26.678Z,4.80
2018-05-01T12:57:48.843Z,5.00
2018-05-01T12:58:48.071Z,4.80
2018-05-01T12:59:48.431Z,5.00
2018-05-01T13:00:49.143Z,4.80
2018-05-01T13:01:49.302Z,5.10
2018-05-01T13:02:49.115Z,5.10
2018-05-01T13:03:50.106Z,4.80
2018-05-01T13:05:09.762Z,4.70
2018-05-01T13:06:32.561Z,5.20
2018-05-01T13:07:32.802Z,5.00
2018-05-01T13:08:33.366Z,4.90
2018-05-01T13:09:54.724Z,5.40
2018-05-01T13:10:54.153Z,5.60
2018-05-01T13:11:56.870Z,5.00
2018-05-01T13:12:54.589Z,5.80
2018-05-01T13:13:54.278Z,5.70
2018-05-01T13:14:55.554Z,5.10
2018-05-01T13:15:54.246Z,4.50
2018-05-01T13:16:56.492Z,5.00
2018-05-01T13:17:53.731Z,5.40
2018-05-01T13:18:54.044Z,5.10
2018-05-01T13:19:54.384Z,5.00
2018-05-01T13:20:54.825Z,4.90
2018-05-01T13:21:54.297Z,5.00
2018-05-01T13:22:54.696Z,4.80
2018-05-01T13:23:54.703Z,4.50
2018-05-01T13:24:54.536Z,4.60
2018-05-01T13:25:55.125Z,4.90
2018-05-01T13:26:54.724Z,5.10
2018-05-01T13:27:54.869Z,4.80
2018-05-01T13:28:54.912Z,5.10
2018-05-01T13:30:15.614Z,4.70
2018-05-01T13:31:17.032Z,4.70
2018-05-01T13:32:15.391Z,5.10
2018-05-01T13:33:16.420Z,4.80
2018-05-01T13:34:15.634Z,4.70
2018-05-01T13:35:15.905Z,4.80
2018-05-01T13:36:16.337Z,6.00
2018-05-01T13:37:16.323Z,5.80
2018-05-01T13:38:17.434Z,4.90
2018-05-01T13:39:18.057Z,4.80
2018-05-01T13:40:37.041Z,5.10
2018-05-01T13:41:38.023Z,4.90
2018-05-01T13:42:37.574Z,5.50
2018-05-01T13:43:37.614Z,4.70
2018-05-01T13:44:58.844Z,5.00
2018-05-01T13:46:45.431Z,4.90
2018-05-01T13:47:45.628Z,5.10
2018-05-01T13:48:45.955Z,5.20
2018-05-01T13:49:45.835Z,4.90
2018-05-01T13:50:45.748Z,4.40
2018-05-01T13:51:45.206Z,4.60
2018-05-01T13:52:47.202Z,5.00
2018-05-01T13:53:45.922Z,4.40
2018-05-01T13:55:08.233Z,4.60
2018-05-01T13:56:07.495Z,4.40
2018-05-01T13:57:08.488Z,4.70
2018-05-01T13:58:09.630Z,4.60
2018-05-01T13:59:07.916Z,4.50
2018-05-01T14:00:07.162Z,5.50
2018-05-01T14:01:07.404Z,5.00
2018-05-01T14:02:08.594Z,4.70
2018-05-01T14:03:08.201Z,5.00
2018-05-01T14:04:07.787Z,4.70
2018-05-01T14:05:07.754Z,4.60
2018-05-01T14:06:07.188Z,4.30
2018-05-01T14:07:07.527Z,4.40
2018-05-01T14:08:08.010Z,4.00
2018-05-01T14:09:07.461Z,4.10
2018-05-01T14:10:31.083Z,4.30
2018-05-01T14:11:29.317Z,4.20
2018-05-01T14:12:30.840Z,4.30
2018-05-01T14:13:29.578Z,4.30
2018-05-01T14:14:30.822Z,4.40
2018-05-01T14:15:56.383Z,4.50
2018-05-01T14:16:54.125Z,3.90
2018-05-01T14:18:43.744Z,4.10
2018-05-01T14:19:44.058Z,3.90
2018-05-01T14:20:45.420Z,4.20
2018-05-01T14:22:26.805Z,3.70
2018-05-01T14:23:24.749Z,3.80
2018-05-01T14:24:24.875Z,4.00
2018-05-01T14:25:45.994Z,4.40
2018-05-01T14:26:46.044Z,4.20
2018-05-01T14:27:46.395Z,3.90
2018-05-01T14:28:46.891Z,3.80
2018-05-01T14:29:46.527Z,3.60
2018-05-01T14:30:47.562Z,4.40
2018-05-01T14:31:47.255Z,3.90
2018-05-01T14:33:09.758Z,4.20
2018-05-01T14:34:09.313Z,4.40
2018-05-01T14:35:10.982Z,3.90
2018-05-01T14:36:30.254Z,3.70
2018-05-01T14:37:54.200Z,4.10
2018-05-01T14:38:54.252Z,3.90
2018-05-01T14:39:54.331Z,4.40
2018-05-01T14:40:54.625Z,3.40
2018-05-01T14:41:55.657Z,3.70
2018-05-01T14:42:53.596Z,3.70
2018-05-01T14:43:53.781Z,4.10
2018-05-01T14:45:14.788Z,3.60
2018-05-01T14:46:15.174Z,3.30
2018-05-01T14:47:38.132Z,3.10
2018-05-01T14:48:37.689Z,3.10
2018-05-01T14:49:38.500Z,3.30
2018-05-01T14:50:36.816Z,2.90
2018-05-01T14:51:58.621Z,3.20
2018-05-01T14:53:00.677Z,3.00
2018-05-01T14:53:59.028Z,3.00
2018-05-01T14:54:58.358Z,3.00
2018-05-01T14:55:59.283Z,3.20
2018-05-01T14:56:59.592Z,2.80
2018-05-01T14:58:00.018Z,3.20
2018-05-01T14:58:58.520Z,2.70
2018-05-01T14:59:58.898Z,2.30
2018-05-01T15:00:59.585Z,2.40
2018-05-01T15:01:59.424Z,2.10
2018-05-01T15:02:59.190Z,2.00
2018-05-01T15:04:05.703Z,2.30
2018-05-01T15:04:59.218Z,2.10
2018-05-01T15:05:59.802Z,2.00
2018-05-01T15:07:01.902Z,2.70
2018-05-01T15:07:59.565Z,2.10
2018-05-01T15:08:59.117Z,1.80
2018-05-01T15:09:58.621Z,2.30
2018-05-01T15:10:58.620Z,2.00
2018-05-01T15:12:42.706Z,1.90
2018-05-01T15:13:42.309Z,2.30
2018-05-01T15:14:41.912Z,2.20
2018-05-01T15:15:43.767Z,1.70
2018-05-01T15:16:42.449Z,2.00
2018-05-01T15:17:42.288Z,1.90
2018-05-01T15:18:42.816Z,2.10
2018-05-01T15:19:43.252Z,2.30
2018-05-01T15:20:42.386Z,2.10
2018-05-01T15:21:41.953Z,2.00
2018-05-01T15:22:42.814Z,1.80
2018-05-01T15:23:43.326Z,2.00
2018-05-01T15:25:04.097Z,1.90
2018-05-01T15:26:03.782Z,2.00